createdAt,value
2018-12-07T00:00:10.614Z,38.88
2018-12-07T00:01:11.083Z,38.88
2018-12-07T00:02:11.552Z,38.87
2018-12-07T00:03:12.022Z,38.90
2018-12-07T00:04:12.489Z,38.86
2018-12-07T00:05:12.958Z,38.88
2018-12-07T00:06:13.532Z,38.85
2018-12-07T00:07:13.900Z,38.86
2018-12-07T00:08:14.365Z,38.85
2018-12-07T00:09:14.836Z,38.87
2018-12-07T00:10:15.302Z,38.86
2018-12-07T00:11:15.772Z,38.88
2018-12-07T00:12:16.246Z,38.90
2018-12-07T00:13:16.710Z,38.88
2018-12-07T00:14:17.178Z,38.91
2018-12-07T00:15:17.646Z,38.95
2018-12-07T00:16:18.119Z,38.92
2018-12-07T00:17:18.586Z,38.97
2018-12-07T00:18:19.052Z,38.98
2018-12-07T00:19:19.520Z,39.02
2018-12-07T00:20:19.990Z,39.04
2018-12-07T00:21:20.510Z,39.02
2018-12-07T00:22:20.928Z,39.01
2018-12-07T00:23:21.398Z,39.01
2018-12-07T00:24:21.867Z,38.96
2018-12-07T00:25:22.333Z,38.94
2018-12-07T00:26:22.803Z,38.95
2018-12-07T00:27:23.271Z,38.98
2018-12-07T00:28:23.741Z,39.01
2018-12-07T00:29:24.209Z,38.99
2018-12-07T00:30:24.679Z,39.00
2018-12-07T00:31:25.146Z,38.99
2018-12-07T00:32:25.614Z,38.92
2018-12-07T00:33:26.084Z,38.83
2018-12-07T00:34:26.554Z,38.80
2018-12-07T00:35:27.021Z,38.80
2018-12-07T00:36:27.490Z,38.79
2018-12-07T00:37:27.957Z,38.79
2018-12-07T00:38:28.428Z,38.72
2018-12-07T00:39:28.894Z,38.69
2018-12-07T00:40:29.365Z,38.71
2018-12-07T00:41:29.884Z,38.77
2018-12-07T00:42:30.303Z,38.78
2018-12-07T00:43:30.772Z,38.77
2018-12-07T00:44:31.241Z,38.77
2018-12-07T00:45:31.785Z,38.76
2018-12-07T00:46:32.177Z,38.75
2018-12-07T00:47:32.647Z,38.71
2018-12-07T00:48:33.111Z,38.76
2018-12-07T00:49:33.580Z,38.74
2018-12-07T00:50:34.048Z,38.74
2018-12-07T00:51:34.518Z,38.68
2018-12-07T00:52:34.987Z,38.69
2018-12-07T00:53:35.452Z,38.66
2018-12-07T00:54:35.923Z,38.68
2018-12-07T00:55:36.391Z,38.67
2018-12-07T00:56:36.915Z,38.67
2018-12-07T00:57:37.329Z,38.63
2018-12-07T00:58:37.797Z,38.63
2018-12-07T00:59:38.266Z,38.66
2018-12-07T01:00:38.734Z,38.65
2018-12-07T01:01:39.200Z,38.62
2018-12-07T01:02:39.669Z,38.62
2018-12-07T01:03:40.138Z,38.58
2018-12-07T01:04:40.608Z,38.51
2018-12-07T01:05:41.074Z,38.56
2018-12-07T01:06:41.543Z,38.56
2018-12-07T01:07:42.012Z,38.54
2018-12-07T01:08:42.482Z,38.48
2018-12-07T01:09:42.950Z,38.50
2018-12-07T01:10:43.419Z,38.51
2018-12-07T01:11:43.886Z,38.54
2018-12-07T01:12:44.354Z,38.51
2018-12-07T01:13:44.821Z,38.54
2018-12-07T01:14:45.291Z,38.52
2018-12-07T01:15:45.759Z,38.51
2018-12-07T01:16:46.229Z,38.49
2018-12-07T01:17:46.698Z,38.52
2018-12-07T01:18:47.164Z,38.56
2018-12-07T01:19:47.633Z,38.57
2018-12-07T01:20:48.102Z,38.57
2018-12-07T01:21:48.570Z,38.52
2018-12-07T01:22:49.039Z,38.53
2018-12-07T01:23:49.509Z,38.55
2018-12-07T01:24:49.975Z,38.54
2018-12-07T01:25:50.444Z,38.56
2018-12-07T01:26:50.937Z,38.53
2018-12-07T01:27:51.380Z,38.50
2018-12-07T01:28:51.858Z,38.52
2018-12-07T01:29:52.316Z,38.52
2018-12-07T01:30:52.894Z,38.53
2018-12-07T01:31:53.254Z,38.54
2018-12-07T01:32:53.725Z,38.47
2018-12-07T01:33:54.192Z,38.53
2018-12-07T01:34:54.661Z,38.48
2018-12-07T01:35:55.128Z,38.47
2018-12-07T01:36:55.647Z,38.47
2018-12-07T01:37:56.065Z,38.43
2018-12-07T01:38:56.533Z,38.42
2018-12-07T01:39:57.001Z,38.45
2018-12-07T01:40:57.469Z,38.48
2018-12-07T01:41:57.938Z,38.46
2018-12-07T01:42:58.407Z,38.44
2018-12-07T01:43:58.874Z,38.47
2018-12-07T01:44:59.343Z,38.50
2018-12-07T01:45:59.811Z,38.51
2018-12-07T01:47:00.282Z,38.60
2018-12-07T01:48:00.749Z,38.57
2018-12-07T01:49:01.218Z,38.64
2018-12-07T01:50:01.687Z,38.69
2018-12-07T01:51:02.155Z,38.68
2018-12-07T01:52:02.624Z,38.66
2018-12-07T01:53:03.093Z,38.66
2018-12-07T01:54:03.561Z,38.64
2018-12-07T01:55:04.026Z,38.64
2018-12-07T01:56:04.497Z,38.62
2018-12-07T01:57:04.965Z,38.65
2018-12-07T01:58:05.433Z,38.69
2018-12-07T01:59:05.904Z,38.69
2018-12-07T02:00:06.369Z,38.69
2018-12-07T02:01:06.838Z,38.69
2018-12-07T02:02:07.306Z,38.68
2018-12-07T02:03:07.779Z,38.68
2018-12-07T02:04:08.244Z,38.64
2018-12-07T02:05:08.711Z,38.60
2018-12-07T02:06:09.260Z,38.54
2018-12-07T02:07:09.649Z,38.55
2018-12-07T02:08:10.118Z,38.62
2018-12-07T02:09:10.586Z,38.61
2018-12-07T02:10:11.051Z,38.62
2018-12-07T02:11:11.522Z,38.65
2018-12-07T02:12:12.039Z,38.69
2018-12-07T02:13:12.459Z,38.71
2018-12-07T02:14:12.927Z,38.75
2018-12-07T02:15:13.392Z,38.75
2018-12-07T02:16:13.863Z,38.78
2018-12-07T02:17:14.332Z,38.77
2018-12-07T02:18:14.802Z,38.80
2018-12-07T02:19:15.267Z,38.80
2018-12-07T02:20:15.737Z,38.83
2018-12-07T02:21:16.204Z,38.84
2018-12-07T02:22:16.672Z,38.84
2018-12-07T02:23:17.140Z,38.84
2018-12-07T02:24:17.609Z,38.85
2018-12-07T02:25:18.079Z,38.90
2018-12-07T02:26:18.546Z,38.89
2018-12-07T02:27:19.066Z,38.87
2018-12-07T02:28:19.484Z,38.89
2018-12-07T02:29:19.951Z,38.90
2018-12-07T02:30:20.425Z,38.90
2018-12-07T02:31:20.889Z,38.91
2018-12-07T02:32:21.358Z,38.87
2018-12-07T02:33:21.826Z,38.86
2018-12-07T02:34:22.292Z,38.86
2018-12-07T02:35:22.759Z,38.89
2018-12-07T02:36:23.228Z,38.86
2018-12-07T02:37:23.697Z,38.86
2018-12-07T02:38:24.167Z,38.88
2018-12-07T02:39:24.632Z,38.98
2018-12-07T02:40:25.103Z,38.98
2018-12-07T02:41:25.571Z,38.96
2018-12-07T02:42:26.037Z,38.96
2018-12-07T02:43:26.505Z,38.93
2018-12-07T02:44:26.976Z,38.91
2018-12-07T02:45:27.442Z,38.87
2018-12-07T02:46:27.914Z,38.87
2018-12-07T02:47:28.377Z,38.86
2018-12-07T02:48:28.847Z,38.84
2018-12-07T02:49:29.315Z,38.81
2018-12-07T02:50:29.784Z,38.78
2018-12-07T02:51:30.253Z,38.72
2018-12-07T02:52:30.769Z,38.72
2018-12-07T02:53:31.189Z,38.68
2018-12-07T02:54:31.656Z,38.65
2018-12-07T02:55:32.126Z,38.66
2018-12-07T02:56:32.592Z,38.66
2018-12-07T02:57:33.059Z,38.64
2018-12-07T02:58:33.526Z,38.61
2018-12-07T02:59:33.997Z,38.59
2018-12-07T03:00:34.464Z,38.61
2018-12-07T03:01:34.932Z,38.60
2018-12-07T03:02:35.401Z,38.64
2018-12-07T03:03:35.869Z,38.62
2018-12-07T03:04:36.338Z,38.57
2018-12-07T03:05:36.805Z,38.56
2018-12-07T03:06:37.274Z,38.54
2018-12-07T03:07:37.741Z,38.50
2018-12-07T03:08:38.213Z,38.50
2018-12-07T03:09:38.677Z,38.47
2018-12-07T03:10:39.147Z,38.49
2018-12-07T03:11:39.613Z,38.47
2018-12-07T03:12:40.082Z,38.46
2018-12-07T03:13:40.550Z,38.43
2018-12-07T03:14:41.019Z,38.42
2018-12-07T03:15:41.487Z,38.39
2018-12-07T03:16:41.955Z,38.37
2018-12-07T03:17:42.429Z,38.37
2018-12-07T03:18:42.893Z,38.34
2018-12-07T03:19:43.360Z,38.35
2018-12-07T03:20:43.830Z,38.34
2018-12-07T03:21:44.296Z,38.35
2018-12-07T03:22:44.764Z,38.35
2018-12-07T03:23:45.231Z,38.35
2018-12-07T03:24:45.701Z,38.36
2018-12-07T03:25:46.171Z,38.35
2018-12-07T03:26:46.637Z,38.34
2018-12-07T03:27:47.110Z,38.36
2018-12-07T03:28:47.574Z,38.34
2018-12-07T03:29:48.042Z,38.34
2018-12-07T03:30:48.510Z,38.33
2018-12-07T03:31:48.981Z,38.32
2018-12-07T03:32:49.448Z,38.32
2018-12-07T03:33:49.943Z,38.34
2018-12-07T03:34:50.563Z,38.32
2018-12-07T03:35:50.853Z,38.34
2018-12-07T03:36:51.323Z,38.33
2018-12-07T03:37:51.791Z,38.31
2018-12-07T03:38:52.257Z,38.37
2018-12-07T03:39:52.730Z,38.35
2018-12-07T03:40:53.195Z,38.39
2018-12-07T03:41:53.663Z,38.41
2018-12-07T03:42:54.131Z,38.38
2018-12-07T03:43:54.602Z,38.41
2018-12-07T03:44:55.073Z,38.38
2018-12-07T03:45:55.541Z,38.40
2018-12-07T03:46:56.006Z,38.43
2018-12-07T03:47:56.523Z,38.43
2018-12-07T03:48:56.943Z,38.35
2018-12-07T03:49:57.412Z,38.40
2018-12-07T03:50:57.878Z,38.38
2018-12-07T03:51:58.349Z,38.39
2018-12-07T03:52:58.816Z,38.41
2018-12-07T03:53:59.286Z,38.42
2018-12-07T03:54:59.756Z,38.45
2018-12-07T03:56:00.220Z,38.45
2018-12-07T03:57:00.689Z,38.49
2018-12-07T03:58:01.158Z,38.53
2018-12-07T03:59:01.625Z,38.51
2018-12-07T04:00:02.108Z,38.55
2018-12-07T04:01:02.565Z,38.54
2018-12-07T04:02:03.032Z,38.57
2018-12-07T04:03:03.550Z,38.56
2018-12-07T04:04:03.967Z,38.55
2018-12-07T04:05:04.446Z,38.60
2018-12-07T04:06:04.904Z,38.61
2018-12-07T04:07:05.379Z,38.65
2018-12-07T04:08:05.841Z,38.66
2018-12-07T04:09:06.326Z,38.67
2018-12-07T04:10:06.778Z,38.66
2018-12-07T04:11:07.250Z,38.65
2018-12-07T04:12:07.717Z,38.64
2018-12-07T04:13:08.183Z,38.62
2018-12-07T04:14:08.652Z,38.62
2018-12-07T04:15:09.120Z,38.64
2018-12-07T04:16:09.587Z,38.61
2018-12-07T04:17:10.059Z,38.61
2018-12-07T04:18:10.579Z,38.63
2018-12-07T04:19:10.998Z,38.61
2018-12-07T04:20:11.463Z,38.65
2018-12-07T04:21:11.930Z,38.64
2018-12-07T04:22:12.401Z,38.63
2018-12-07T04:23:12.918Z,38.62
2018-12-07T04:24:13.335Z,38.63
2018-12-07T04:25:13.808Z,38.58
2018-12-07T04:26:14.274Z,38.57
2018-12-07T04:27:14.741Z,38.59
2018-12-07T04:28:15.210Z,38.57
2018-12-07T04:29:15.678Z,38.57
2018-12-07T04:30:16.146Z,38.59
2018-12-07T04:31:16.620Z,38.55
2018-12-07T04:32:17.083Z,38.52
2018-12-07T04:33:17.552Z,38.47
2018-12-07T04:34:18.019Z,38.46
2018-12-07T04:35:18.490Z,38.49
2018-12-07T04:36:18.959Z,38.50
2018-12-07T04:37:19.426Z,38.49
2018-12-07T04:38:19.893Z,38.46
2018-12-07T04:39:20.360Z,38.44
2018-12-07T04:40:20.831Z,38.41
2018-12-07T04:41:21.298Z,38.41
2018-12-07T04:42:21.768Z,38.44
2018-12-07T04:43:22.234Z,38.44
2018-12-07T04:44:22.703Z,38.46
2018-12-07T04:45:23.174Z,38.46
2018-12-07T04:46:23.642Z,38.48
2018-12-07T04:47:24.111Z,38.49
2018-12-07T04:48:24.578Z,38.49
2018-12-07T04:49:25.049Z,38.46
2018-12-07T04:50:25.516Z,38.46
2018-12-07T04:51:25.983Z,38.47
2018-12-07T04:52:26.452Z,38.46
2018-12-07T04:53:26.920Z,38.50
2018-12-07T04:54:27.391Z,38.49
2018-12-07T04:55:27.856Z,38.48
2018-12-07T04:56:28.326Z,38.50
2018-12-07T04:57:28.796Z,38.53
2018-12-07T04:58:29.414Z,38.55
2018-12-07T04:59:29.731Z,38.55
2018-12-07T05:00:30.198Z,38.55
2018-12-07T05:01:30.666Z,38.56
2018-12-07T05:02:31.135Z,38.58
2018-12-07T05:03:31.605Z,38.54
2018-12-07T05:04:32.073Z,38.54
2018-12-07T05:05:32.544Z,38.50
2018-12-07T05:06:33.011Z,38.46
2018-12-07T05:07:33.477Z,38.46
2018-12-07T05:08:33.947Z,38.47
2018-12-07T05:09:34.416Z,38.50
2018-12-07T05:10:34.883Z,38.50
2018-12-07T05:11:35.351Z,38.47
2018-12-07T05:12:35.825Z,38.56
2018-12-07T05:13:36.290Z,38.56
2018-12-07T05:14:36.767Z,38.56
2018-12-07T05:15:37.224Z,38.59
2018-12-07T05:16:37.694Z,38.60
2018-12-07T05:17:38.162Z,38.64
2018-12-07T05:18:38.630Z,38.67
2018-12-07T05:19:39.099Z,38.68
2018-12-07T05:20:39.566Z,38.71
2018-12-07T05:21:40.034Z,38.68
2018-12-07T05:22:40.505Z,38.71
2018-12-07T05:23:40.975Z,38.72
2018-12-07T05:24:41.441Z,38.72
2018-12-07T05:25:41.910Z,38.71
2018-12-07T05:26:42.381Z,38.72
2018-12-07T05:27:42.846Z,38.70
2018-12-07T05:28:43.315Z,38.66
2018-12-07T05:29:43.787Z,38.68
2018-12-07T05:30:44.253Z,38.68
2018-12-07T05:31:44.728Z,38.62
2018-12-07T05:32:45.189Z,38.64
2018-12-07T05:33:45.706Z,38.64
2018-12-07T05:34:46.124Z,38.59
2018-12-07T05:35:46.594Z,38.60
2018-12-07T05:36:47.060Z,38.59
2018-12-07T05:37:47.529Z,38.55
2018-12-07T05:38:47.998Z,38.52
2018-12-07T05:39:48.464Z,38.50
2018-12-07T05:40:48.935Z,38.48
2018-12-07T05:41:49.403Z,38.48
2018-12-07T05:42:49.875Z,38.48
2018-12-07T05:43:50.373Z,38.49
2018-12-07T05:44:50.807Z,38.49
2018-12-07T05:45:51.278Z,38.48
2018-12-07T05:46:51.747Z,38.47
2018-12-07T05:47:52.212Z,38.46
2018-12-07T05:48:52.680Z,38.46
2018-12-07T05:49:53.150Z,38.42
2018-12-07T05:50:53.618Z,38.44
2018-12-07T05:51:54.086Z,38.48
2018-12-07T05:52:54.553Z,38.49
2018-12-07T05:53:55.074Z,38.53
2018-12-07T05:54:55.493Z,38.57
2018-12-07T05:55:55.959Z,38.56
2018-12-07T05:56:56.446Z,38.58
2018-12-07T05:57:56.895Z,38.59
2018-12-07T05:58:57.365Z,38.58
2018-12-07T05:59:57.833Z,38.55
2018-12-07T06:00:58.300Z,38.54
2018-12-07T06:01:58.775Z,38.55
2018-12-07T06:02:59.237Z,38.62
2018-12-07T06:03:59.710Z,38.61
2018-12-07T06:05:00.175Z,38.57
2018-12-07T06:06:00.646Z,38.57
2018-12-07T06:07:01.110Z,38.60
2018-12-07T06:08:01.579Z,38.60
2018-12-07T06:09:02.047Z,38.60
2018-12-07T06:10:02.519Z,38.58
2018-12-07T06:11:02.986Z,38.58
2018-12-07T06:12:03.451Z,38.58
2018-12-07T06:13:03.923Z,38.59
2018-12-07T06:14:04.591Z,38.55
2018-12-07T06:15:04.856Z,38.54
2018-12-07T06:16:05.327Z,38.55
2018-12-07T06:17:05.793Z,38.54
2018-12-07T06:18:06.266Z,38.51
2018-12-07T06:19:06.730Z,38.50
2018-12-07T06:20:07.197Z,38.50
2018-12-07T06:21:07.666Z,38.47
2018-12-07T06:22:08.133Z,38.42
2018-12-07T06:23:08.602Z,38.42
2018-12-07T06:24:09.071Z,38.39
2018-12-07T06:25:09.540Z,38.40
2018-12-07T06:26:10.014Z,38.35
2018-12-07T06:27:10.476Z,38.37
2018-12-07T06:28:10.945Z,38.31
2018-12-07T06:29:11.414Z,38.27
2018-12-07T06:30:11.879Z,38.29
2018-12-07T06:31:12.348Z,38.28
2018-12-07T06:32:12.817Z,38.24
2018-12-07T06:33:13.301Z,38.25
2018-12-07T06:34:13.806Z,38.25
2018-12-07T06:35:14.223Z,38.22
2018-12-07T06:36:14.690Z,38.25
2018-12-07T06:37:15.158Z,38.27
2018-12-07T06:38:15.629Z,38.27
2018-12-07T06:39:16.098Z,38.28
2018-12-07T06:40:16.564Z,38.27
2018-12-07T06:41:17.033Z,38.26
2018-12-07T06:42:17.500Z,38.24
2018-12-07T06:43:17.973Z,38.28
2018-12-07T06:44:18.437Z,38.27
2018-12-07T06:45:18.908Z,38.31
2018-12-07T06:46:19.376Z,38.27
2018-12-07T06:47:19.843Z,38.24
2018-12-07T06:48:20.319Z,38.29
2018-12-07T06:49:20.782Z,38.25
2018-12-07T06:50:21.251Z,38.27
2018-12-07T06:51:21.806Z,38.25
2018-12-07T06:52:22.191Z,38.26
2018-12-07T06:53:22.654Z,38.25
2018-12-07T06:54:23.124Z,38.27
2018-12-07T06:55:23.594Z,38.26
2018-12-07T06:56:24.061Z,38.25
2018-12-07T06:57:24.529Z,38.30
2018-12-07T06:58:24.999Z,38.28
2018-12-07T06:59:25.467Z,38.27
2018-12-07T07:00:25.933Z,38.27
2018-12-07T07:01:26.403Z,38.26
2018-12-07T07:02:26.874Z,38.25
2018-12-07T07:03:27.342Z,38.25
2018-12-07T07:04:27.810Z,38.26
2018-12-07T07:05:28.279Z,38.26
2018-12-07T07:06:28.747Z,38.21
2018-12-07T07:07:29.217Z,38.17
2018-12-07T07:08:29.684Z,38.21
2018-12-07T07:09:30.203Z,38.23
2018-12-07T07:10:30.624Z,38.26
2018-12-07T07:11:31.092Z,38.30
2018-12-07T07:12:31.558Z,38.32
2018-12-07T07:13:32.027Z,38.29
2018-12-07T07:14:32.498Z,38.32
2018-12-07T07:15:32.967Z,38.30
2018-12-07T07:16:33.436Z,38.33
2018-12-07T07:17:33.903Z,38.32
2018-12-07T07:18:34.374Z,38.31
2018-12-07T07:19:34.842Z,38.28
2018-12-07T07:20:35.310Z,38.31
2018-12-07T07:21:35.779Z,38.27
2018-12-07T07:22:36.246Z,38.27
2018-12-07T07:23:36.716Z,38.29
2018-12-07T07:24:37.183Z,38.30
2018-12-07T07:25:37.652Z,38.29
2018-12-07T07:26:38.128Z,38.29
2018-12-07T07:27:38.594Z,38.28
2018-12-07T07:28:39.058Z,38.31
2018-12-07T07:29:39.527Z,38.33
2018-12-07T07:30:39.996Z,38.33
2018-12-07T07:31:43.322Z,38.32
2018-12-07T07:32:40.936Z,38.32
2018-12-07T07:33:41.401Z,38.33
2018-12-07T07:34:41.869Z,38.32
2018-12-07T07:35:42.342Z,38.33
2018-12-07T07:36:42.809Z,38.31
2018-12-07T07:37:43.276Z,38.26
2018-12-07T07:38:43.745Z,38.24
2018-12-07T07:39:44.215Z,38.21
2018-12-07T07:40:44.684Z,38.25
2018-12-07T07:41:45.151Z,38.21
2018-12-07T07:42:45.621Z,38.21
2018-12-07T07:43:46.089Z,38.22
2018-12-07T07:44:46.558Z,38.20
2018-12-07T07:45:47.028Z,38.22
2018-12-07T07:46:47.494Z,38.25
2018-12-07T07:47:47.965Z,38.24
2018-12-07T07:48:48.432Z,38.26
2018-12-07T07:49:48.901Z,38.24
2018-12-07T07:50:49.368Z,38.28
2018-12-07T07:51:49.838Z,38.24
2018-12-07T07:52:50.307Z,38.24
2018-12-07T07:53:50.776Z,38.23
2018-12-07T07:54:51.252Z,38.22
2018-12-07T07:55:51.711Z,38.21
2018-12-07T07:56:52.183Z,38.24
2018-12-07T07:57:52.652Z,38.24
2018-12-07T07:58:53.118Z,38.21
2018-12-07T07:59:53.588Z,38.23
2018-12-07T08:00:54.056Z,38.24
2018-12-07T08:01:54.523Z,38.27
2018-12-07T08:02:54.993Z,38.26
2018-12-07T08:03:55.463Z,38.24
2018-12-07T08:04:55.930Z,38.25
2018-12-07T08:05:56.411Z,38.25
2018-12-07T08:06:56.866Z,38.22
2018-12-07T08:07:57.338Z,38.26
2018-12-07T08:08:57.806Z,38.26
2018-12-07T08:09:58.275Z,38.28
2018-12-07T08:10:58.743Z,38.26
2018-12-07T08:11:59.213Z,38.25
2018-12-07T08:12:59.682Z,38.26
2018-12-07T08:14:00.148Z,38.25
2018-12-07T08:15:00.818Z,38.28
2018-12-07T08:16:01.088Z,38.26
2018-12-07T08:17:01.556Z,38.30
2018-12-07T08:18:02.022Z,38.27
2018-12-07T08:19:02.494Z,38.28
2018-12-07T08:20:02.960Z,38.27
2018-12-07T08:21:03.429Z,38.26
2018-12-07T08:22:03.900Z,38.26
2018-12-07T08:23:04.368Z,38.26
2018-12-07T08:24:04.838Z,38.24
2018-12-07T08:25:05.304Z,38.26
2018-12-07T08:26:05.775Z,38.24
2018-12-07T08:27:06.243Z,38.24
2018-12-07T08:28:06.713Z,38.23
2018-12-07T08:29:07.179Z,38.26
2018-12-07T08:30:07.650Z,38.21
2018-12-07T08:31:08.118Z,38.23
2018-12-07T08:32:08.586Z,38.22
2018-12-07T08:33:09.054Z,38.20
2018-12-07T08:34:09.522Z,38.19
2018-12-07T08:35:09.992Z,38.20
2018-12-07T08:36:10.464Z,38.21
2018-12-07T08:37:10.929Z,38.21
2018-12-07T08:38:11.401Z,38.20
2018-12-07T08:39:11.875Z,38.19
2018-12-07T08:40:12.387Z,38.19
2018-12-07T08:41:12.805Z,38.18
2018-12-07T08:42:13.274Z,38.17
2018-12-07T08:43:13.742Z,38.17
2018-12-07T08:44:14.212Z,38.15
2018-12-07T08:45:14.681Z,38.19
2018-12-07T08:46:15.149Z,38.16
2018-12-07T08:47:15.618Z,38.18
2018-12-07T08:48:16.088Z,38.16
2018-12-07T08:49:16.557Z,38.14
2018-12-07T08:50:17.027Z,38.15
2018-12-07T08:51:17.495Z,38.16
2018-12-07T08:52:17.964Z,38.19
2018-12-07T08:53:18.436Z,38.18
2018-12-07T08:54:18.904Z,38.17
2018-12-07T08:55:19.371Z,38.16
2018-12-07T08:56:19.840Z,38.14
2018-12-07T08:57:20.313Z,38.11
2018-12-07T08:58:20.776Z,38.12
2018-12-07T08:59:21.246Z,38.13
2018-12-07T09:00:21.714Z,38.12
2018-12-07T09:01:22.184Z,38.14
2018-12-07T09:02:22.651Z,38.13
2018-12-07T09:03:23.126Z,38.11
2018-12-07T09:04:23.591Z,38.13
2018-12-07T09:05:24.062Z,38.12
2018-12-07T09:06:24.528Z,38.11
2018-12-07T09:07:25.000Z,38.12
2018-12-07T09:08:25.473Z,38.10
2018-12-07T09:09:25.936Z,38.12
2018-12-07T09:10:26.405Z,38.16
2018-12-07T09:11:26.875Z,38.17
2018-12-07T09:12:27.344Z,38.15
2018-12-07T09:13:27.819Z,38.19
2018-12-07T09:14:28.280Z,38.14
2018-12-07T09:15:28.751Z,38.12
2018-12-07T09:16:29.219Z,38.12
2018-12-07T09:17:29.687Z,38.13
2018-12-07T09:18:30.157Z,38.14
2018-12-07T09:19:30.627Z,38.15
2018-12-07T09:20:31.098Z,38.20
2018-12-07T09:21:31.564Z,38.20
2018-12-07T09:22:32.035Z,38.19
2018-12-07T09:23:32.502Z,38.17
2018-12-07T09:24:32.974Z,38.17
2018-12-07T09:25:33.440Z,38.17
2018-12-07T09:26:33.908Z,38.16
2018-12-07T09:27:34.380Z,38.15
2018-12-07T09:28:34.855Z,38.14
2018-12-07T09:29:35.324Z,38.12
2018-12-07T09:30:35.785Z,38.12
2018-12-07T09:31:36.255Z,38.17
2018-12-07T09:32:36.724Z,38.13
2018-12-07T09:33:37.195Z,38.13
2018-12-07T09:34:37.664Z,38.13
2018-12-07T09:35:38.184Z,38.16
2018-12-07T09:36:38.606Z,38.16
2018-12-07T09:37:39.070Z,38.12
2018-12-07T09:38:39.541Z,38.15
2018-12-07T09:39:40.008Z,38.15
2018-12-07T09:40:40.480Z,38.18
2018-12-07T09:41:40.945Z,38.19
2018-12-07T09:42:41.413Z,38.17
2018-12-07T09:43:41.885Z,38.19
2018-12-07T09:44:42.354Z,38.15
2018-12-07T09:45:42.820Z,38.20
2018-12-07T09:46:43.290Z,38.19
2018-12-07T09:47:43.769Z,38.18
2018-12-07T09:48:44.231Z,38.20
2018-12-07T09:49:44.697Z,38.19
2018-12-07T09:50:45.219Z,38.18
2018-12-07T09:51:45.636Z,38.21
2018-12-07T09:52:46.105Z,38.20
2018-12-07T09:53:46.577Z,38.17
2018-12-07T09:54:47.044Z,38.16
2018-12-07T09:55:47.513Z,38.17
2018-12-07T09:56:47.982Z,38.11
2018-12-07T09:57:48.450Z,38.15
2018-12-07T09:58:48.920Z,38.14
2018-12-07T09:59:49.389Z,38.17
2018-12-07T10:00:49.861Z,38.12
2018-12-07T10:01:50.329Z,38.11
2018-12-07T10:02:50.797Z,38.11
2018-12-07T10:03:51.275Z,38.17
2018-12-07T10:04:51.736Z,38.09
2018-12-07T10:05:52.210Z,38.10
2018-12-07T10:06:52.675Z,38.11
2018-12-07T10:07:53.143Z,38.10
2018-12-07T10:08:53.612Z,38.12
2018-12-07T10:09:54.081Z,38.09
2018-12-07T10:10:54.550Z,38.06
2018-12-07T10:11:55.020Z,38.07
2018-12-07T10:12:55.489Z,38.08
2018-12-07T10:13:55.956Z,38.10
2018-12-07T10:14:56.426Z,38.10
2018-12-07T10:15:56.896Z,38.09
2018-12-07T10:16:57.367Z,38.08
2018-12-07T10:17:57.835Z,38.08
2018-12-07T10:18:58.303Z,38.11
2018-12-07T10:19:58.772Z,38.12
2018-12-07T10:20:59.241Z,38.09
2018-12-07T10:21:59.710Z,38.08
2018-12-07T10:23:00.180Z,38.08
2018-12-07T10:24:00.648Z,38.08
2018-12-07T10:25:01.122Z,38.08
2018-12-07T10:26:01.587Z,38.06
2018-12-07T10:27:02.114Z,38.03
2018-12-07T10:28:02.525Z,38.04
2018-12-07T10:29:02.996Z,38.06
2018-12-07T10:30:03.463Z,38.07
2018-12-07T10:31:03.932Z,38.03
2018-12-07T10:32:04.402Z,38.05
2018-12-07T10:33:04.873Z,38.06
2018-12-07T10:34:05.341Z,38.05
2018-12-07T10:35:05.810Z,38.01
2018-12-07T10:36:06.279Z,38.03
2018-12-07T10:37:06.749Z,38.02
2018-12-07T10:38:07.218Z,38.04
2018-12-07T10:39:07.688Z,38.02
2018-12-07T10:40:08.154Z,38.02
2018-12-07T10:41:08.624Z,38.05
2018-12-07T10:42:09.097Z,38.07
2018-12-07T10:43:09.564Z,38.07
2018-12-07T10:44:10.032Z,38.07
2018-12-07T10:45:10.502Z,38.07
2018-12-07T10:46:10.969Z,38.09
2018-12-07T10:47:11.439Z,38.09
2018-12-07T10:48:11.912Z,38.05
2018-12-07T10:49:12.379Z,38.04
2018-12-07T10:50:12.847Z,38.08
2018-12-07T10:51:13.367Z,38.09
2018-12-07T10:52:13.788Z,38.09
2018-12-07T10:53:14.255Z,38.07
2018-12-07T10:54:14.725Z,38.06
2018-12-07T10:55:15.193Z,38.06
2018-12-07T10:56:15.663Z,38.06
2018-12-07T10:57:16.134Z,38.06
2018-12-07T10:58:16.603Z,38.04
2018-12-07T10:59:17.070Z,38.04
2018-12-07T11:00:22.883Z,38.04
2018-12-07T11:01:18.012Z,38.06
2018-12-07T11:02:18.478Z,38.02
2018-12-07T11:03:18.948Z,38.05
2018-12-07T11:04:19.418Z,38.02
2018-12-07T11:05:19.888Z,37.99
2018-12-07T11:06:20.358Z,37.98
2018-12-07T11:07:20.827Z,37.97
2018-12-07T11:08:21.294Z,38.00
2018-12-07T11:09:21.763Z,37.97
2018-12-07T11:10:22.232Z,37.99
2018-12-07T11:11:23.004Z,38.01
2018-12-07T11:12:23.170Z,37.98
2018-12-07T11:13:23.642Z,38.01
2018-12-07T11:14:24.108Z,37.98
2018-12-07T11:15:24.577Z,37.96
2018-12-07T11:16:25.050Z,37.99
2018-12-07T11:17:25.520Z,37.97
2018-12-07T11:18:26.033Z,37.93
2018-12-07T11:19:26.458Z,37.96
2018-12-07T11:20:26.925Z,37.96
2018-12-07T11:21:27.396Z,37.98
2018-12-07T11:22:27.865Z,37.98
2018-12-07T11:23:28.332Z,37.98
2018-12-07T11:24:28.803Z,37.96
2018-12-07T11:25:29.271Z,37.96
2018-12-07T11:26:29.743Z,37.96
2018-12-07T11:27:30.211Z,37.95
2018-12-07T11:28:30.683Z,37.95
2018-12-07T11:29:31.151Z,37.96
2018-12-07T11:30:31.618Z,37.95
2018-12-07T11:31:32.089Z,37.95
2018-12-07T11:32:32.558Z,37.95
2018-12-07T11:33:33.027Z,37.96
2018-12-07T11:34:33.497Z,37.93
2018-12-07T11:35:33.966Z,37.97
2018-12-07T11:36:34.436Z,37.94
2018-12-07T11:37:34.906Z,37.93
2018-12-07T11:38:35.376Z,37.96
2018-12-07T11:39:35.843Z,37.98
2018-12-07T11:40:36.313Z,37.96
2018-12-07T11:41:36.783Z,37.96
2018-12-07T11:42:37.253Z,37.96
2018-12-07T11:43:37.720Z,37.94
2018-12-07T11:44:38.195Z,37.96
2018-12-07T11:45:38.661Z,37.96
2018-12-07T11:46:39.181Z,37.95
2018-12-07T11:47:39.602Z,37.92
2018-12-07T11:48:40.070Z,37.91
2018-12-07T11:49:40.540Z,37.92
2018-12-07T11:50:41.007Z,37.94
2018-12-07T11:51:41.480Z,37.94
2018-12-07T11:52:41.950Z,37.93
2018-12-07T11:53:42.420Z,37.91
2018-12-07T11:54:42.885Z,37.94
2018-12-07T11:55:43.356Z,37.95
2018-12-07T11:56:43.825Z,37.94
2018-12-07T11:57:44.295Z,37.94
2018-12-07T11:58:44.765Z,37.95
2018-12-07T11:59:45.236Z,37.96
2018-12-07T12:00:45.704Z,37.96
2018-12-07T12:01:46.224Z,37.94
2018-12-07T12:02:46.642Z,37.95
2018-12-07T12:03:47.112Z,37.94
2018-12-07T12:04:47.581Z,37.93
2018-12-07T12:05:48.051Z,37.93
2018-12-07T12:06:48.520Z,37.94
2018-12-07T12:07:48.992Z,37.95
2018-12-07T12:08:49.462Z,37.94
2018-12-07T12:09:49.931Z,37.94
2018-12-07T12:10:50.399Z,37.98
2018-12-07T12:11:50.919Z,37.95
2018-12-07T12:12:51.341Z,37.96
2018-12-07T12:13:51.838Z,37.96
2018-12-07T12:14:52.277Z,37.96
2018-12-07T12:15:52.747Z,37.95
2018-12-07T12:16:53.218Z,37.93
2018-12-07T12:17:53.689Z,37.93
2018-12-07T12:18:54.157Z,37.97
2018-12-07T12:19:54.630Z,37.97
2018-12-07T12:20:55.096Z,37.98
2018-12-07T12:21:55.566Z,37.99
2018-12-07T12:22:56.035Z,37.98
2018-12-07T12:23:56.505Z,37.99
2018-12-07T12:24:56.974Z,37.96
2018-12-07T12:25:57.445Z,37.96
2018-12-07T12:26:57.965Z,37.97
2018-12-07T12:27:58.383Z,37.96
2018-12-07T12:28:58.854Z,37.96
2018-12-07T12:29:59.324Z,37.96
2018-12-07T12:30:59.793Z,37.97
2018-12-07T12:32:00.262Z,37.95
2018-12-07T12:33:00.731Z,37.96
2018-12-07T12:34:01.202Z,37.95
2018-12-07T12:35:01.670Z,37.93
2018-12-07T12:36:02.142Z,37.91
2018-12-07T12:37:02.612Z,37.93
2018-12-07T12:38:03.085Z,37.90
2018-12-07T12:39:03.549Z,37.91
2018-12-07T12:40:04.019Z,37.89
2018-12-07T12:41:04.490Z,37.88
2018-12-07T12:42:05.013Z,37.87
2018-12-07T12:43:05.429Z,37.90
2018-12-07T12:44:05.899Z,37.89
2018-12-07T12:45:06.368Z,37.90
2018-12-07T12:46:06.839Z,37.90
2018-12-07T12:47:07.308Z,37.88
2018-12-07T12:48:07.792Z,37.89
2018-12-07T12:49:08.251Z,37.88
2018-12-07T12:50:08.719Z,37.87
2018-12-07T12:51:09.188Z,37.87
2018-12-07T12:52:09.662Z,37.85
2018-12-07T12:53:10.128Z,37.85
2018-12-07T12:54:10.598Z,37.86
2018-12-07T12:55:11.070Z,37.84
2018-12-07T12:56:11.539Z,37.84
2018-12-07T12:57:12.011Z,37.86
2018-12-07T12:58:12.481Z,37.85